createdAt,value
2018-07-11T00:01:03.833Z,12.47
2018-07-11T00:03:45.616Z,15.57
2018-07-11T00:06:15.444Z,13.10
2018-07-11T00:08:43.903Z,12.70
2018-07-11T00:11:12.713Z,13.93
2018-07-11T00:13:42.864Z,13.80
2018-07-11T00:16:11.525Z,12.73
2018-07-11T00:18:39.967Z,13.00
2018-07-11T00:21:08.407Z,11.37
2018-07-11T00:23:37.021Z,11.73
2018-07-11T00:26:06.662Z,12.17
2018-07-11T00:28:35.174Z,12.07
2018-07-11T00:31:03.655Z,12.77
2018-07-11T00:33:32.427Z,12.67
2018-07-11T00:36:00.999Z,12.40
2018-07-11T00:38:29.803Z,12.53
2018-07-11T00:40:59.193Z,12.10
2018-07-11T00:43:28.622Z,12.20
2018-07-11T00:45:57.138Z,12.40
2018-07-11T00:48:25.617Z,13.13
2018-07-11T00:50:54.077Z,12.10
2018-07-11T00:53:23.051Z,12.90
2018-07-11T00:55:51.551Z,12.33
2018-07-11T00:58:29.864Z,12.37
2018-07-11T01:01:07.312Z,12.00
2018-07-11T01:03:38.835Z,12.03
2018-07-11T01:06:07.323Z,11.23
2018-07-11T01:08:38.116Z,11.33
2018-07-11T01:11:11.792Z,10.53
2018-07-11T01:13:41.390Z,12.63
2018-07-11T01:16:09.899Z,10.13
2018-07-11T01:18:45.965Z,11.37
2018-07-11T01:21:14.408Z,10.93
2018-07-11T01:23:42.851Z,11.63
2018-07-11T01:26:11.401Z,11.30
2018-07-11T01:28:39.868Z,12.30
2018-07-11T01:31:08.311Z,13.50
2018-07-11T01:33:36.776Z,10.93
2018-07-11T01:36:05.229Z,12.80
2018-07-11T01:38:33.717Z,11.47
2018-07-11T01:41:02.199Z,11.50
2018-07-11T01:43:30.668Z,10.43
2018-07-11T01:45:59.130Z,9.97
2018-07-11T01:48:27.632Z,9.47
2018-07-11T01:50:56.114Z,11.23
2018-07-11T01:53:24.596Z,10.70
2018-07-11T01:55:53.236Z,10.50
2018-07-11T01:58:21.737Z,11.07
2018-07-11T02:00:50.235Z,9.40
2018-07-11T02:03:18.710Z,9.03
2018-07-11T02:05:47.188Z,9.57
2018-07-11T02:08:15.600Z,9.43
2018-07-11T02:10:44.067Z,9.77
2018-07-11T02:13:12.726Z,11.00
2018-07-11T02:15:41.215Z,9.67
2018-07-11T02:18:09.681Z,10.23
2018-07-11T02:20:38.148Z,11.23
2018-07-11T02:23:06.608Z,9.90
2018-07-11T02:25:35.095Z,10.00
2018-07-11T02:28:03.501Z,9.03
2018-07-11T02:30:31.968Z,10.60
2018-07-11T02:33:00.432Z,6.63
2018-07-11T02:35:28.896Z,6.00
2018-07-11T02:37:57.025Z,5.67
2018-07-11T02:40:25.474Z,5.43
2018-07-11T02:42:53.893Z,5.50
2018-07-11T02:45:22.351Z,4.63
2018-07-11T02:47:50.924Z,5.50
2018-07-11T02:50:19.385Z,4.60
2018-07-11T02:52:47.855Z,5.63
2018-07-11T02:55:16.239Z,4.33
2018-07-11T02:57:44.660Z,4.63
2018-07-11T03:00:13.075Z,2.97
2018-07-11T03:02:41.570Z,3.10
2018-07-11T03:05:10.028Z,2.90
2018-07-11T03:07:38.544Z,2.93
2018-07-11T03:10:07.012Z,3.37
2018-07-11T03:12:35.467Z,3.27
2018-07-11T03:15:03.939Z,2.93
2018-07-11T03:17:32.437Z,3.20
2018-07-11T03:20:00.841Z,3.63
2018-07-11T03:22:29.319Z,2.83
2018-07-11T03:24:57.740Z,2.53
2018-07-11T03:27:26.228Z,2.43
2018-07-11T03:29:54.656Z,2.60
2018-07-11T03:32:23.103Z,2.07
2018-07-11T03:34:51.530Z,2.63
2018-07-11T03:37:19.993Z,2.50
2018-07-11T03:39:48.430Z,2.33
2018-07-11T03:42:16.911Z,4.60
2018-07-11T03:44:45.499Z,3.37
2018-07-11T03:47:13.939Z,2.50
2018-07-11T03:49:42.416Z,2.77
2018-07-11T03:52:10.889Z,2.60
2018-07-11T03:54:39.338Z,2.30
2018-07-11T03:57:07.777Z,2.30
2018-07-11T03:59:36.200Z,2.93
2018-07-11T04:02:04.612Z,3.23
2018-07-11T04:04:33.064Z,2.63
2018-07-11T04:07:01.472Z,3.83
2018-07-11T04:09:29.907Z,2.97
2018-07-11T04:11:58.317Z,2.60
2018-07-11T04:14:26.760Z,2.50
2018-07-11T04:16:55.176Z,2.90
2018-07-11T04:19:23.619Z,3.50
2018-07-11T04:21:52.035Z,2.10
2018-07-11T04:24:20.465Z,2.67
2018-07-11T04:26:48.980Z,1.80
2018-07-11T04:29:17.495Z,2.33
2018-07-11T04:31:45.999Z,2.27
2018-07-11T04:34:14.473Z,2.50
2018-07-11T04:36:43.327Z,2.40
2018-07-11T04:39:11.787Z,2.57
2018-07-11T04:41:40.280Z,2.27
2018-07-11T04:44:08.768Z,2.43
2018-07-11T04:46:37.271Z,3.00
2018-07-11T04:49:06.123Z,2.63
2018-07-11T04:51:34.711Z,2.70
2018-07-11T04:54:03.469Z,2.83
2018-07-11T04:56:31.950Z,2.87
2018-07-11T04:59:00.356Z,2.53
2018-07-11T05:01:28.788Z,3.17
2018-07-11T05:03:57.267Z,2.33
2018-07-11T05:06:25.720Z,2.73
2018-07-11T05:08:54.139Z,2.40
2018-07-11T05:11:22.559Z,2.20
2018-07-11T05:13:51.300Z,2.50
2018-07-11T05:16:19.765Z,2.23
2018-07-11T05:18:48.163Z,2.43
2018-07-11T05:21:16.570Z,2.37
2018-07-11T05:23:45.008Z,2.23
2018-07-11T05:26:13.449Z,3.00
2018-07-11T05:28:41.880Z,2.60
2018-07-11T05:31:10.300Z,6.67
2018-07-11T05:33:38.731Z,3.53
2018-07-11T05:36:07.183Z,4.23
2018-07-11T05:38:35.610Z,2.83
2018-07-11T05:41:04.025Z,2.73
2018-07-11T05:43:32.455Z,3.00
2018-07-11T05:46:00.885Z,3.03
2018-07-11T05:48:35.660Z,2.70
2018-07-11T05:51:04.072Z,3.03
2018-07-11T05:53:32.506Z,2.40
2018-07-11T05:56:01.184Z,2.47
2018-07-11T05:58:29.611Z,2.63
2018-07-11T06:00:58.033Z,2.30
2018-07-11T06:03:26.459Z,2.20
2018-07-11T06:05:54.983Z,3.33
2018-07-11T06:08:23.539Z,2.30
2018-07-11T06:10:51.996Z,3.10
2018-07-11T06:13:20.466Z,3.30
2018-07-11T06:15:49.964Z,2.70
2018-07-11T06:18:18.734Z,3.23
2018-07-11T06:20:47.203Z,3.33
2018-07-11T06:23:16.007Z,2.30
2018-07-11T06:25:44.458Z,3.27
2018-07-11T06:28:12.894Z,2.70
2018-07-11T06:30:41.342Z,2.60
2018-07-11T06:33:09.788Z,3.90
2018-07-11T06:35:38.249Z,3.83
2018-07-11T06:38:06.712Z,4.90
2018-07-11T06:40:36.528Z,3.93
2018-07-11T06:43:05.053Z,3.77
2018-07-11T06:45:33.517Z,7.97
2018-07-11T06:48:01.995Z,4.03
2018-07-11T06:50:30.448Z,4.63
2018-07-11T06:52:58.912Z,3.20
2018-07-11T06:55:27.055Z,4.33
2018-07-11T06:57:55.499Z,4.40
2018-07-11T07:00:23.943Z,4.73
2018-07-11T07:02:52.388Z,4.13
2018-07-11T07:05:20.930Z,4.27
2018-07-11T07:07:49.351Z,3.97
2018-07-11T07:10:17.779Z,4.20
2018-07-11T07:12:46.236Z,5.57
2018-07-11T07:15:14.708Z,3.80
2018-07-11T07:17:43.159Z,3.87
2018-07-11T07:20:11.608Z,3.53
2018-07-11T07:22:40.071Z,3.60
2018-07-11T07:25:08.548Z,4.97
2018-07-11T07:27:37.030Z,3.70
2018-07-11T07:30:05.503Z,3.30
2018-07-11T07:32:33.960Z,3.60
2018-07-11T07:35:02.396Z,3.40
2018-07-11T07:37:30.867Z,4.43
2018-07-11T07:39:59.307Z,3.87
2018-07-11T07:42:27.785Z,4.50
2018-07-11T07:44:56.279Z,3.03
2018-07-11T07:47:30.169Z,7.53
2018-07-11T07:49:58.684Z,3.63
2018-07-11T07:52:27.173Z,3.87
2018-07-11T07:54:55.691Z,3.10
2018-07-11T07:57:24.195Z,2.63
2018-07-11T07:59:53.229Z,2.60
2018-07-11T08:02:21.879Z,5.30
2018-07-11T08:04:50.448Z,2.80
2018-07-11T08:07:18.956Z,3.50
2018-07-11T08:09:47.380Z,2.50
2018-07-11T08:12:15.836Z,3.23
2018-07-11T08:14:44.314Z,2.60
2018-07-11T08:17:12.743Z,3.00
2018-07-11T08:19:41.220Z,2.90
2018-07-11T08:22:21.288Z,5.27
2018-07-11T08:25:01.256Z,2.87
2018-07-11T08:28:19.289Z,3.80
2018-07-11T08:31:46.040Z,2.90
2018-07-11T08:34:22.516Z,2.17
2018-07-11T08:37:02.291Z,2.90
2018-07-11T08:40:40.748Z,2.10
2018-07-11T08:43:51.455Z,1.33
2018-07-11T08:46:45.528Z,2.17
2018-07-11T08:49:56.134Z,2.50
2018-07-11T08:52:35.938Z,2.30
2018-07-11T08:57:20.376Z,1.70
2018-07-11T08:59:57.007Z,2.20
2018-07-11T09:02:38.722Z,2.53
2018-07-11T09:05:18.524Z,2.10
2018-07-11T09:07:58.483Z,2.40
2018-07-11T09:10:42.397Z,2.30
2018-07-11T09:13:30.193Z,2.27
2018-07-11T09:16:11.554Z,1.80
2018-07-11T09:18:51.199Z,2.00
2018-07-11T09:22:38.347Z,2.07
2018-07-11T09:25:06.810Z,2.17
2018-07-11T09:27:35.248Z,2.10
2018-07-11T09:30:03.765Z,2.43
2018-07-11T09:32:32.195Z,2.17
2018-07-11T09:35:00.699Z,2.80
2018-07-11T09:37:29.137Z,2.30
2018-07-11T09:39:57.629Z,2.00
2018-07-11T09:42:26.131Z,1.90
2018-07-11T09:44:54.951Z,1.80
2018-07-11T09:47:27.869Z,1.90
2018-07-11T09:49:56.336Z,1.40
2018-07-11T09:52:24.935Z,2.37
2018-07-11T09:54:53.595Z,2.10
2018-07-11T09:57:22.098Z,1.77
2018-07-11T09:59:50.580Z,2.27
2018-07-11T10:02:19.083Z,1.90
2018-07-11T10:04:47.573Z,1.43
2018-07-11T10:07:16.096Z,1.43
2018-07-11T10:09:44.603Z,1.00
2018-07-11T10:12:13.154Z,1.40
2018-07-11T10:14:41.665Z,1.30
2018-07-11T10:17:10.147Z,1.43
2018-07-11T10:19:38.592Z,1.33
2018-07-11T10:22:07.061Z,1.30
2018-07-11T10:24:35.575Z,1.47
2018-07-11T10:27:04.039Z,1.57
2018-07-11T10:29:32.484Z,4.40
2018-07-11T10:32:00.947Z,1.63
2018-07-11T10:34:29.390Z,1.70
2018-07-11T10:36:57.860Z,1.90
2018-07-11T10:39:26.283Z,1.30
2018-07-11T10:41:54.795Z,1.70
2018-07-11T10:44:23.257Z,1.50
2018-07-11T10:46:55.676Z,1.60
2018-07-11T10:49:24.323Z,2.50
2018-07-11T10:51:52.856Z,1.57
2018-07-11T10:54:21.347Z,1.80
2018-07-11T10:56:49.858Z,1.97
2018-07-11T10:59:18.020Z,1.83
2018-07-11T11:01:52.818Z,1.67
2018-07-11T11:04:22.286Z,1.80
2018-07-11T11:06:51.081Z,1.80
2018-07-11T11:09:19.536Z,2.00
2018-07-11T11:11:47.665Z,2.30
2018-07-11T11:14:16.203Z,1.50
2018-07-11T11:16:44.653Z,1.50
2018-07-11T11:19:13.180Z,1.77
2018-07-11T11:21:41.687Z,1.97
2018-07-11T11:24:10.148Z,1.63
2018-07-11T11:26:38.623Z,1.87
2018-07-11T11:29:07.098Z,1.60
2018-07-11T11:31:35.546Z,1.80
2018-07-11T11:34:04.050Z,1.53
2018-07-11T11:36:32.527Z,1.33
2018-07-11T11:39:00.962Z,1.77
2018-07-11T11:41:29.573Z,1.40
2018-07-11T11:43:58.027Z,1.70
2018-07-11T11:46:26.515Z,1.47
2018-07-11T11:48:54.959Z,1.83
2018-07-11T11:51:23.459Z,1.37
2018-07-11T11:53:51.924Z,1.90
2018-07-11T11:56:20.443Z,1.60
2018-07-11T11:58:48.871Z,2.30
2018-07-11T12:01:17.336Z,1.67
2018-07-11T12:03:45.819Z,1.97
2018-07-11T12:06:14.311Z,3.43
2018-07-11T12:08:42.738Z,1.40
2018-07-11T12:11:11.206Z,1.40
2018-07-11T12:13:39.628Z,1.20
2018-07-11T12:16:08.134Z,1.37
2018-07-11T12:18:36.558Z,1.50
2018-07-11T12:21:05.066Z,1.30
2018-07-11T12:23:33.508Z,1.20
2018-07-11T12:26:03.967Z,1.60
2018-07-11T12:28:32.447Z,2.27
2018-07-11T12:31:01.020Z,2.30
2018-07-11T12:33:29.839Z,2.17
2018-07-11T12:35:58.651Z,3.53
2018-07-11T12:38:27.275Z,2.57
2018-07-11T12:40:55.698Z,3.13
2018-07-11T12:43:24.807Z,3.73
2018-07-11T12:45:53.264Z,3.67
2018-07-11T12:48:27.150Z,3.20
2018-07-11T12:50:56.120Z,2.57
2018-07-11T12:53:24.648Z,3.27
2018-07-11T12:55:53.104Z,2.33
2018-07-11T12:58:21.607Z,3.70
2018-07-11T13:00:50.466Z,3.13
2018-07-11T13:03:19.259Z,3.20
2018-07-11T13:05:47.771Z,2.60
2018-07-11T13:08:18.168Z,2.80
2018-07-11T13:10:46.593Z,3.10
2018-07-11T13:13:15.046Z,4.73
2018-07-11T13:15:43.496Z,3.73
2018-07-11T13:18:11.956Z,4.60
2018-07-11T13:20:40.384Z,4.60
2018-07-11T13:23:08.871Z,3.63
2018-07-11T13:25:37.451Z,4.70
2018-07-11T13:28:05.776Z,5.50
2018-07-11T13:30:34.236Z,4.77
2018-07-11T13:33:02.705Z,7.03
2018-07-11T13:35:31.153Z,6.57
2018-07-11T13:37:59.597Z,4.97
2018-07-11T13:40:34.403Z,5.20
2018-07-11T13:43:02.840Z,5.67
2018-07-11T13:45:31.284Z,5.40
2018-07-11T13:48:02.260Z,6.03
2018-07-11T13:50:31.762Z,5.67
2018-07-11T13:53:00.851Z,5.77
2018-07-11T13:55:29.608Z,6.40
2018-07-11T13:57:59.367Z,5.60
2018-07-11T14:00:28.025Z,5.23
2018-07-11T14:02:57.020Z,4.33
2018-07-11T14:05:25.483Z,4.40
2018-07-11T14:07:53.923Z,3.43
2018-07-11T14:10:22.392Z,4.13
2018-07-11T14:12:50.927Z,3.40
2018-07-11T14:15:19.443Z,4.83
2018-07-11T14:17:47.924Z,8.83
2018-07-11T14:20:16.446Z,6.10
2018-07-11T14:22:47.356Z,5.33
2018-07-11T14:25:19.271Z,6.20
2018-07-11T14:27:49.849Z,9.13
2018-07-11T14:30:23.146Z,9.50
2018-07-11T14:32:54.919Z,5.80
2018-07-11T14:35:23.462Z,7.37
2018-07-11T14:37:52.195Z,6.63
2018-07-11T14:40:21.783Z,7.23
2018-07-11T14:42:50.210Z,7.70
2018-07-11T14:45:18.713Z,5.93
2018-07-11T14:47:52.522Z,5.47
2018-07-11T14:50:21.048Z,4.80
2018-07-11T14:52:49.482Z,4.57
2018-07-11T14:55:18.019Z,3.80
2018-07-11T14:57:47.000Z,2.70
2018-07-11T15:00:15.492Z,4.13
2018-07-11T15:02:43.940Z,3.87
2018-07-11T15:05:12.404Z,4.40
2018-07-11T15:07:40.881Z,3.00
2018-07-11T15:10:09.320Z,3.30
2018-07-11T15:12:38.104Z,2.80
2018-07-11T15:15:06.580Z,3.40
2018-07-11T15:17:35.079Z,7.83
2018-07-11T15:20:03.535Z,2.93
2018-07-11T15:22:32.043Z,4.10
2018-07-11T15:25:00.496Z,4.30
2018-07-11T15:27:29.041Z,3.43
2018-07-11T15:29:58.097Z,5.40
2018-07-11T15:32:26.595Z,3.13
2018-07-11T15:34:55.132Z,3.13
2018-07-11T15:37:23.773Z,6.80
2018-07-11T15:39:53.060Z,3.30
2018-07-11T15:42:22.064Z,3.27
2018-07-11T15:44:51.462Z,3.43
2018-07-11T15:47:21.725Z,3.90
2018-07-11T15:49:51.998Z,2.83
2018-07-11T15:52:21.940Z,2.53
2018-07-11T15:54:50.461Z,5.40
2018-07-11T15:57:25.670Z,2.70
2018-07-11T16:00:06.175Z,6.30
2018-07-11T16:02:39.622Z,3.43
2018-07-11T16:05:08.224Z,3.13
2018-07-11T16:07:37.093Z,2.90
2018-07-11T16:10:05.630Z,2.60
2018-07-11T16:12:34.111Z,4.17
2018-07-11T16:15:02.599Z,4.27
2018-07-11T16:17:31.077Z,2.50
2018-07-11T16:19:59.599Z,3.40
2018-07-11T16:22:28.083Z,4.70
2018-07-11T16:24:56.694Z,4.67
2018-07-11T16:27:25.267Z,2.60
2018-07-11T16:29:53.760Z,3.20
2018-07-11T16:32:22.197Z,3.07
2018-07-11T16:34:50.679Z,3.20
2018-07-11T16:37:19.468Z,3.17
2018-07-11T16:39:48.009Z,10.23
2018-07-11T16:42:17.862Z,3.07
2018-07-11T16:44:46.462Z,2.70
2018-07-11T16:47:14.992Z,4.30
2018-07-11T16:49:43.519Z,2.53
2018-07-11T16:52:12.179Z,9.97
2018-07-11T16:54:42.028Z,3.27
2018-07-11T16:57:10.538Z,3.40
2018-07-11T16:59:48.015Z,3.00
2018-07-11T17:02:21.479Z,3.40
2018-07-11T17:04:52.051Z,4.17
2018-07-11T17:07:21.440Z,3.60
2018-07-11T17:09:51.088Z,4.27
2018-07-11T17:12:20.250Z,6.20
2018-07-11T17:14:49.260Z,3.50
2018-07-11T17:17:20.469Z,4.13
2018-07-11T17:19:59.878Z,4.07
2018-07-11T17:22:29.964Z,4.17
2018-07-11T17:25:02.112Z,3.77
2018-07-11T17:27:30.621Z,5.43
2018-07-11T17:30:02.979Z,3.07
2018-07-11T17:32:32.065Z,7.27
2018-07-11T17:35:00.585Z,4.23
2018-07-11T17:37:32.523Z,9.70
2018-07-11T17:40:11.452Z,4.40
2018-07-11T17:42:43.961Z,3.90
2018-07-11T17:45:17.451Z,6.40
2018-07-11T17:50:06.200Z,4.23
2018-07-11T17:53:48.910Z,4.60
2018-07-11T17:56:21.356Z,7.70
2018-07-11T17:58:55.195Z,5.17
2018-07-11T18:01:34.568Z,5.00
2018-07-11T18:04:10.920Z,5.63
2018-07-11T18:06:50.751Z,5.53
2018-07-11T18:09:22.628Z,5.63
2018-07-11T18:11:58.440Z,8.00
2018-07-11T18:14:38.176Z,5.97
2018-07-11T18:17:35.988Z,7.70
2018-07-11T18:22:15.572Z,4.67
2018-07-11T18:24:55.272Z,5.37
2018-07-11T18:28:03.799Z,4.70
2018-07-11T18:30:46.030Z,8.20
2018-07-11T18:33:41.700Z,7.33
2018-07-11T18:37:29.522Z,5.30
2018-07-11T18:40:00.703Z,6.60
2018-07-11T18:42:51.519Z,5.67
2018-07-11T18:45:26.333Z,5.93
2018-07-11T18:48:06.034Z,5.33
2018-07-11T18:53:00.018Z,5.37
2018-07-11T18:55:35.297Z,5.93
2018-07-11T18:58:19.293Z,4.33
2018-07-11T19:02:00.483Z,7.03
2018-07-11T19:04:39.016Z,5.70
2018-07-11T19:07:17.108Z,6.20
2018-07-11T19:09:54.192Z,6.87
2018-07-11T19:12:30.035Z,6.13
2018-07-11T19:15:06.992Z,6.47
2018-07-11T19:18:14.955Z,7.80
2018-07-11T19:20:53.376Z,5.10
2018-07-11T19:23:29.079Z,5.17
2018-07-11T19:27:07.853Z,5.70
2018-07-11T19:29:47.660Z,5.73
2018-07-11T19:32:26.908Z,6.03
2018-07-11T19:35:02.761Z,6.33
2018-07-11T19:37:36.439Z,5.60
2018-07-11T19:40:12.984Z,7.03
2018-07-11T19:42:52.079Z,5.13
2018-07-11T19:45:31.125Z,5.60
2018-07-11T19:50:14.933Z,8.80
2018-07-11T19:52:46.688Z,6.40
2018-07-11T19:55:30.624Z,6.00
2018-07-11T19:57:59.302Z,5.60
2018-07-11T20:00:27.728Z,4.57
2018-07-11T20:02:59.436Z,5.00
2018-07-11T20:05:27.926Z,5.90
2018-07-11T20:07:56.423Z,5.87
2018-07-11T20:10:24.931Z,5.70
2018-07-11T20:12:53.403Z,5.83
2018-07-11T20:15:21.949Z,6.00
2018-07-11T20:17:50.344Z,5.93
2018-07-11T20:20:18.915Z,5.83
2018-07-11T20:22:47.463Z,6.60
2018-07-11T20:25:15.948Z,5.40
2018-07-11T20:27:44.419Z,6.80
2018-07-11T20:30:12.935Z,5.97
2018-07-11T20:35:16.092Z,5.63
2018-07-11T20:37:44.579Z,5.43
2018-07-11T20:40:13.038Z,6.97
2018-07-11T20:42:41.556Z,5.97
2018-07-11T20:45:10.084Z,7.30
2018-07-11T20:47:39.312Z,7.87
2018-07-11T20:50:07.899Z,8.03
2018-07-11T20:52:36.036Z,9.30
2018-07-11T20:55:04.498Z,8.33
2018-07-11T20:57:32.935Z,8.17
2018-07-11T21:00:12.581Z,7.83
2018-07-11T21:02:52.339Z,8.80
2018-07-11T21:07:41.660Z,9.73
2018-07-11T21:12:29.792Z,7.50
2018-07-11T21:15:11.916Z,8.20
2018-07-11T21:17:52.448Z,7.93
2018-07-11T21:20:20.867Z,9.30
2018-07-11T21:22:49.310Z,12.10
2018-07-11T21:25:17.731Z,10.23
2018-07-11T21:27:46.156Z,8.90
2018-07-11T21:30:14.571Z,9.67
2018-07-11T21:32:42.995Z,10.00
2018-07-11T21:35:11.421Z,8.73
2018-07-11T21:37:39.883Z,12.47
2018-07-11T21:40:08.303Z,14.20
2018-07-11T21:42:36.730Z,11.33
2018-07-11T21:45:05.194Z,10.77
2018-07-11T21:47:33.620Z,11.03
2018-07-11T21:50:01.823Z,12.07
2018-07-11T21:52:30.288Z,9.83
2018-07-11T21:54:58.740Z,13.50
2018-07-11T21:57:27.220Z,11.60
2018-07-11T21:59:55.651Z,10.43
2018-07-11T22:02:24.139Z,15.07
2018-07-11T22:04:52.612Z,14.20
2018-07-11T22:07:21.136Z,12.80
2018-07-11T22:09:49.644Z,13.40
2018-07-11T22:12:18.127Z,12.30
2018-07-11T22:14:46.591Z,15.43
2018-07-11T22:17:26.285Z,15.60
2018-07-11T22:19:53.627Z,14.20
2018-07-11T22:22:20.949Z,13.13
2018-07-11T22:24:48.273Z,16.30
2018-07-11T22:27:15.651Z,15.43
2018-07-11T22:29:42.968Z,16.30
2018-07-11T22:32:10.310Z,13.50
2018-07-11T22:34:37.632Z,14.43
2018-07-11T22:37:04.972Z,14.07
2018-07-11T22:39:32.348Z,14.40
2018-07-11T22:41:59.688Z,14.20
2018-07-11T22:44:27.002Z,11.97
2018-07-11T22:46:54.350Z,13.73
2018-07-11T22:49:21.683Z,12.03
2018-07-11T22:51:49.024Z,14.53
2018-07-11T22:54:16.377Z,14.57
2018-07-11T22:56:43.723Z,18.90
2018-07-11T22:59:11.039Z,17.10
2018-07-11T23:01:38.375Z,18.43
2018-07-11T23:04:05.687Z,18.30
2018-07-11T23:06:33.036Z,17.60
2018-07-11T23:09:00.360Z,20.73
2018-07-11T23:11:27.703Z,20.30
2018-07-11T23:13:55.855Z,19.33
2018-07-11T23:16:23.191Z,18.80
2018-07-11T23:18:50.507Z,20.27
2018-07-11T23:21:17.850Z,21.53
2018-07-11T23:23:45.164Z,20.50
2018-07-11T23:26:12.520Z,17.87
2018-07-11T23:28:39.844Z,16.13
2018-07-11T23:31:07.183Z,15.73
2018-07-11T23:33:34.504Z,19.40
2018-07-11T23:36:01.852Z,15.13
2018-07-11T23:38:29.172Z,19.70
2018-07-11T23:40:56.516Z,16.50
2018-07-11T23:43:23.844Z,17.17
2018-07-11T23:45:51.176Z,17.57
2018-07-11T23:48:18.505Z,12.87
2018-07-11T23:50:45.852Z,14.70
2018-07-11T23:53:13.199Z,15.53
2018-07-11T23:55:40.527Z,14.50
2018-07-11T23:58:08.099Z,16.43
